createdAt,value
2018-05-31T00:03:58.418Z,3.47
2018-05-31T00:09:00.468Z,3.17
2018-05-31T00:14:02.546Z,3.27
2018-05-31T00:19:03.855Z,3.27
2018-05-31T00:24:05.895Z,3.20
2018-05-31T00:29:07.203Z,4.43
2018-05-31T00:34:08.509Z,3.73
2018-05-31T00:39:09.845Z,3.30
2018-05-31T00:44:11.144Z,4.67
2018-05-31T00:49:12.452Z,5.90
2018-05-31T00:54:13.756Z,5.97
2018-05-31T00:59:15.079Z,6.40
2018-05-31T01:04:17.131Z,4.80
2018-05-31T01:09:18.436Z,5.90
2018-05-31T01:14:19.767Z,6.83
2018-05-31T01:19:22.555Z,6.53
2018-05-31T01:24:23.859Z,5.67
2018-05-31T01:29:25.167Z,5.47
2018-05-31T01:34:26.463Z,6.17
2018-05-31T01:39:27.780Z,5.97
2018-05-31T01:44:29.094Z,5.57
2018-05-31T01:49:31.160Z,5.27
2018-05-31T01:54:32.483Z,5.63
2018-05-31T01:59:33.770Z,6.27
2018-05-31T02:04:35.075Z,6.27
2018-05-31T02:09:36.390Z,6.63
2018-05-31T02:14:37.726Z,5.77
2018-05-31T02:19:39.036Z,7.00
2018-05-31T02:24:40.332Z,6.00
2018-05-31T02:29:41.627Z,6.00
2018-05-31T02:34:42.927Z,5.67
2018-05-31T02:39:44.247Z,6.23
2018-05-31T02:44:45.581Z,6.00
2018-05-31T02:49:47.644Z,6.50
2018-05-31T02:54:48.942Z,5.40
2018-05-31T02:59:50.987Z,5.50
2018-05-31T03:04:52.294Z,5.27
2018-05-31T03:09:54.343Z,5.90
2018-05-31T03:14:56.403Z,5.50
2018-05-31T03:19:57.747Z,5.63
2018-05-31T03:24:59.050Z,5.20
2018-05-31T03:30:00.331Z,5.03
2018-05-31T03:35:01.636Z,5.13
2018-05-31T03:40:02.975Z,5.40
2018-05-31T03:45:05.051Z,5.40
2018-05-31T03:50:07.111Z,5.37
2018-05-31T03:55:08.424Z,4.97
2018-05-31T04:00:09.729Z,3.80
2018-05-31T04:05:11.031Z,4.70
2018-05-31T04:10:13.077Z,4.10
2018-05-31T04:15:14.385Z,4.37
2018-05-31T04:20:15.705Z,3.83
2018-05-31T04:25:18.487Z,3.77
2018-05-31T04:30:19.785Z,3.97
2018-05-31T04:35:21.093Z,3.63
2018-05-31T04:40:22.399Z,4.40
2018-05-31T04:45:24.455Z,3.50
2018-05-31T04:50:25.790Z,4.20
2018-05-31T04:55:27.830Z,3.47
2018-05-31T05:00:29.154Z,3.80
2018-05-31T05:05:30.461Z,3.20
2018-05-31T05:10:31.751Z,3.47
2018-05-31T05:15:33.791Z,3.50
2018-05-31T05:20:35.099Z,3.77
2018-05-31T05:25:37.151Z,3.33
2018-05-31T05:30:38.459Z,3.60
2018-05-31T05:35:40.489Z,3.03
2018-05-31T05:40:41.822Z,3.37
2018-05-31T05:45:43.155Z,6.40
2018-05-31T05:50:44.497Z,7.00
2018-05-31T05:55:45.808Z,7.70
2018-05-31T06:00:47.102Z,7.37
2018-05-31T06:05:48.423Z,8.30
2018-05-31T06:10:49.757Z,5.97
2018-05-31T06:15:51.791Z,4.87
2018-05-31T06:20:53.104Z,4.23
2018-05-31T06:25:55.247Z,4.00
2018-05-31T06:30:56.550Z,3.60
2018-05-31T06:35:57.862Z,3.20
2018-05-31T06:40:59.170Z,3.60
2018-05-31T06:46:01.235Z,3.20
2018-05-31T06:51:02.597Z,3.40
2018-05-31T06:56:03.895Z,3.60
2018-05-31T07:01:05.198Z,3.43
2018-05-31T07:06:06.535Z,4.03
2018-05-31T07:11:07.841Z,3.27
2018-05-31T07:16:09.132Z,3.80
2018-05-31T07:21:10.426Z,4.10
2018-05-31T07:26:11.721Z,3.40
2018-05-31T07:31:13.021Z,3.47
2018-05-31T07:36:14.351Z,3.67
2018-05-31T07:41:15.655Z,4.50
2018-05-31T07:46:16.952Z,3.97
2018-05-31T07:51:19.038Z,4.03
2018-05-31T07:56:20.320Z,4.00
2018-05-31T08:01:22.372Z,4.50
2018-05-31T08:06:23.673Z,4.73
2018-05-31T08:11:24.979Z,3.70
2018-05-31T08:16:26.286Z,3.80
2018-05-31T08:21:28.304Z,4.47
2018-05-31T08:26:29.596Z,3.90
2018-05-31T08:31:30.939Z,3.93
2018-05-31T08:36:32.951Z,4.00
2018-05-31T08:41:34.256Z,4.27
2018-05-31T08:46:35.645Z,4.00
2018-05-31T08:51:36.946Z,3.80
2018-05-31T08:56:38.263Z,3.67
2018-05-31T09:01:39.579Z,3.63
2018-05-31T09:06:40.927Z,4.07
2018-05-31T09:11:42.288Z,4.10
2018-05-31T09:16:43.630Z,3.87
2018-05-31T09:21:44.925Z,4.53
2018-05-31T09:26:46.227Z,4.10
2018-05-31T09:31:48.257Z,3.90
2018-05-31T09:36:49.566Z,3.50
2018-05-31T09:41:51.611Z,3.60
2018-05-31T09:46:52.951Z,4.20
2018-05-31T09:51:54.239Z,3.70
2018-05-31T09:56:55.556Z,3.30
2018-05-31T10:01:56.859Z,4.37
2018-05-31T10:06:58.180Z,3.73
2018-05-31T10:12:00.214Z,3.40
2018-05-31T10:17:01.524Z,3.70
2018-05-31T10:22:03.567Z,3.20
2018-05-31T10:32:32.856Z,2.97
2018-05-31T10:37:34.921Z,3.63
2018-05-31T10:42:36.996Z,3.97
2018-05-31T10:47:38.310Z,3.60
2018-05-31T10:52:39.634Z,3.20
2018-05-31T10:57:40.979Z,3.60
2018-05-31T11:02:42.291Z,3.70
2018-05-31T11:07:43.591Z,3.30
2018-05-31T11:12:44.909Z,3.40
2018-05-31T11:17:46.969Z,3.60
2018-05-31T11:22:49.055Z,3.53
2018-05-31T11:27:51.131Z,3.60
2018-05-31T11:32:53.184Z,3.57
2018-05-31T11:37:54.501Z,3.50
2018-05-31T11:42:55.795Z,3.50
2018-05-31T11:47:57.099Z,3.20
2018-05-31T11:52:58.441Z,3.47
2018-05-31T11:57:59.748Z,3.17
2018-05-31T12:03:01.787Z,3.55
2018-05-31T12:08:04.129Z,3.47
2018-05-31T12:13:05.481Z,4.05
2018-05-31T12:18:06.829Z,3.20
2018-05-31T12:23:08.140Z,2.75
2018-05-31T12:28:09.460Z,2.95
2018-05-31T12:33:10.792Z,3.20
2018-05-31T12:38:12.117Z,3.15
2018-05-31T12:43:13.447Z,3.25
2018-05-31T12:48:14.781Z,3.10
2018-05-31T12:53:16.106Z,3.50
2018-05-31T12:58:18.146Z,3.20
2018-05-31T13:03:19.447Z,3.20
2018-05-31T13:08:20.803Z,2.83
2018-05-31T13:13:23.705Z,2.80
2018-05-31T13:18:25.757Z,2.90
2018-05-31T13:23:27.056Z,3.10
2018-05-31T13:28:29.115Z,3.00
2018-05-31T13:33:30.416Z,2.90
2018-05-31T13:38:32.471Z,2.90
2018-05-31T13:43:33.772Z,3.05
2018-05-31T13:48:35.165Z,2.67
2018-05-31T13:53:36.465Z,2.85
2018-05-31T13:58:37.757Z,3.10
2018-05-31T14:03:39.806Z,3.12
2018-05-31T14:08:41.125Z,3.20
2018-05-31T14:13:42.463Z,2.90
2018-05-31T14:18:43.812Z,2.87
2018-05-31T14:23:45.848Z,2.90
2018-05-31T14:28:47.155Z,3.15
2018-05-31T14:33:49.208Z,2.90
2018-05-31T14:38:51.483Z,2.90
2018-05-31T14:43:52.828Z,2.62
2018-05-31T14:48:54.130Z,2.70
2018-05-31T14:53:55.474Z,3.07
2018-05-31T14:58:56.788Z,3.17
2018-05-31T15:03:58.076Z,3.00
2018-05-31T15:09:00.114Z,3.30
2018-05-31T15:14:01.440Z,3.30
2018-05-31T15:19:02.744Z,3.10
2018-05-31T15:24:04.071Z,3.40
2018-05-31T15:29:05.399Z,2.77
2018-05-31T15:34:06.710Z,3.27
2018-05-31T15:39:08.037Z,3.00
2018-05-31T15:44:09.343Z,3.50
2018-05-31T15:49:10.688Z,3.90
2018-05-31T15:54:11.980Z,3.50
2018-05-31T15:59:13.302Z,3.87
2018-05-31T16:04:15.352Z,3.70
2018-05-31T16:09:16.671Z,3.43
2018-05-31T16:14:18.017Z,3.23
2018-05-31T16:19:19.367Z,3.40
2018-05-31T16:24:21.432Z,3.40
2018-05-31T16:29:22.739Z,3.73
2018-05-31T16:34:24.046Z,3.90
2018-05-31T16:39:25.367Z,4.27
2018-05-31T16:44:26.704Z,3.87
2018-05-31T16:49:28.044Z,3.93
2018-05-31T16:54:29.329Z,4.60
2018-05-31T16:59:31.371Z,5.73
2018-05-31T17:04:32.676Z,7.87
2018-05-31T17:09:34.745Z,6.00
2018-05-31T17:14:36.084Z,4.67
2018-05-31T17:19:37.398Z,4.53
2018-05-31T17:24:39.448Z,9.67
2018-05-31T17:29:40.774Z,4.93
2018-05-31T17:34:42.091Z,4.50
2018-05-31T17:39:44.139Z,5.13
2018-05-31T17:44:45.501Z,15.33
2018-05-31T17:49:46.843Z,4.80
2018-05-31T17:54:48.159Z,4.30
2018-05-31T17:59:49.471Z,4.27
2018-05-31T18:04:50.783Z,4.50
2018-05-31T18:09:53.594Z,4.50
2018-05-31T18:14:55.660Z,3.80
2018-05-31T18:19:56.976Z,4.37
2018-05-31T18:24:58.312Z,4.20
2018-05-31T18:30:00.368Z,4.57
2018-05-31T18:35:01.695Z,4.37
2018-05-31T18:40:03.056Z,3.80
2018-05-31T18:45:05.107Z,4.60
2018-05-31T18:50:07.150Z,4.17
2018-05-31T18:55:08.459Z,4.10
2018-05-31T19:00:10.515Z,4.60
2018-05-31T19:05:11.855Z,4.40
2018-05-31T19:10:13.183Z,4.10
2018-05-31T19:15:21.632Z,4.77
2018-05-31T19:20:15.928Z,4.60
2018-05-31T19:25:19.110Z,4.40
2018-05-31T19:30:26.419Z,4.50
2018-05-31T19:35:33.733Z,4.80
2018-05-31T19:40:35.100Z,4.50
2018-05-31T19:45:36.423Z,4.60
2018-05-31T19:50:37.723Z,5.17
2018-05-31T19:55:39.127Z,4.80
2018-05-31T20:00:46.563Z,4.80
2018-05-31T20:05:47.917Z,4.73
2018-05-31T20:10:49.206Z,4.60
2018-05-31T20:15:51.320Z,4.50
2018-05-31T20:20:52.652Z,5.70
2018-05-31T20:25:53.908Z,4.83
2018-05-31T20:30:55.243Z,5.47
2018-05-31T20:35:57.259Z,5.70
2018-05-31T20:40:58.546Z,4.87
2018-05-31T20:45:59.876Z,4.70
2018-05-31T20:51:01.157Z,4.13
2018-05-31T20:56:02.471Z,5.13
2018-05-31T21:01:04.515Z,4.77
2018-05-31T21:06:05.821Z,5.13
2018-05-31T21:11:07.141Z,5.20
2018-05-31T21:16:08.526Z,5.07
2018-05-31T21:21:09.848Z,4.40
2018-05-31T21:26:11.193Z,5.13
2018-05-31T21:31:12.477Z,5.33
2018-05-31T21:36:13.817Z,5.27
2018-05-31T21:41:15.422Z,6.20
2018-05-31T21:46:16.650Z,5.90
2018-05-31T21:51:19.460Z,6.33
2018-05-31T21:56:20.758Z,6.93
2018-05-31T22:01:22.821Z,7.40
2018-05-31T22:06:24.085Z,7.97
2018-05-31T22:11:25.400Z,6.10
2018-05-31T22:16:26.648Z,4.77
2018-05-31T22:21:27.935Z,2.30
2018-05-31T22:26:29.272Z,1.83
2018-05-31T22:31:31.319Z,1.60
2018-05-31T22:36:32.640Z,1.07
2018-05-31T22:41:33.989Z,1.43
2018-05-31T22:46:35.286Z,1.60
2018-05-31T22:51:37.327Z,1.50
2018-05-31T22:56:38.600Z,1.77
2018-05-31T23:01:39.927Z,1.30
2018-05-31T23:06:41.222Z,1.40
2018-05-31T23:11:43.260Z,1.63
2018-05-31T23:16:44.578Z,1.63
2018-05-31T23:21:45.893Z,2.17
2018-05-31T23:26:47.303Z,2.20
2018-05-31T23:31:48.634Z,1.57
2018-05-31T23:36:49.940Z,2.27
2018-05-31T23:41:51.231Z,1.80
2018-05-31T23:46:52.558Z,1.60
2018-05-31T23:51:54.581Z,1.40
2018-05-31T23:56:55.894Z,1.50
